Hovedside
METAR-TAF:

METAR-TAF

Lufthavner :

Helsingfors-Vanda lufthavn

Helsingfors, Finland

breddegrad: 60-19N, lengdegrad: 024-58E, høyde over havet: 51 m

Gjeldene værobservasjon

Denne rapporten ble laget for 23 minutter siden, klokken 03:20 UTC
Vind 8 kt fra Øst-sørøst
Temperatur 16°C
Luftfuktighet 77%
Trykk 1012 hPa
Sikt 10 km eller mer
ingen skyer under 1500 m og ingen bygeskyer

METAR: EFHK 180320Z 12008KT CAVOK 16/12 Q1012 NOSIG

Tid: 06:43 (03:43 UTC)

Varsel

Denne rapporten ble laget for 1 time og 20 minutter siden, klokken 02:23 UTC
Varsel gyldig fra 18. klokken 03 UTC til 19. klokken 03 UTC
Vind 8 kt fra Sør-sørøst
Sikt 10 km eller mer
ingen skyer under 1500 m og ingen bygeskyer
Sannsynlighet 30% :
Midlertidig
fra 18. klokken 09 UTC til 18. klokken 14 UTC
Få skyer i en høyde av 3000 ft, Bygeskyer.

TAF: EFHK 180223Z 1803/1903 15008KT CAVOK PROB30 TEMPO 1809/1814 FEW030CB

Værobservasjoner og værvarsel for over 4000 flyplasser (METAR- og TAF-rapporter).

Tilgjengelige stasjoner er representert av de røde og gule prikkene på kartet.

Hold musepekeren over prikken for å se navnet på stasjonen.

Klikk så for å se værobservasjoner og -varsler.

For å forandre kartet kan du klikke på den grønne knappen med svart kryss for å zoome inn, på den grønne knappen med strek for å zoome ut, eller på de grønne pilene for å se tilstøtende kart.


METAR-TAF: